sensor_id;sensor_type;location;lat;lon;timestamp;pressure;altitude;pressure_sealevel;temperature;humidity
50672;BME280;46021;55.882;37.654;2022-09-09T00:00:43;100267.22;;;4.98;74.25
50672;BME280;46021;55.882;37.654;2022-09-09T00:03:16;100257.72;;;4.95;74.42
50672;BME280;46021;55.882;37.654;2022-09-09T00:05:48;100268.06;;;4.97;74.08
50672;BME280;46021;55.882;37.654;2022-09-09T00:08:20;100268.06;;;4.97;74.26
50672;BME280;46021;55.882;37.654;2022-09-09T00:10:52;100269.78;;;4.99;74.58
50672;BME280;46021;55.882;37.654;2022-09-09T00:13:29;100274.94;;;4.96;73.98
50672;BME280;46021;55.882;37.654;2022-09-09T00:16:00;100270.66;;;4.94;73.45
50672;BME280;46021;55.882;37.654;2022-09-09T00:18:35;100275.81;;;4.94;74.58
50672;BME280;46021;55.882;37.654;2022-09-09T00:21:08;100275.81;;;4.92;74.54
50672;BME280;46021;55.882;37.654;2022-09-09T00:23:38;100268.94;;;4.88;73.76
50672;BME280;46021;55.882;37.654;2022-09-09T00:26:07;100280.97;;;4.92;73.74
50672;BME280;46021;55.882;37.654;2022-09-09T00:28:39;100273.22;;;4.89;73.53
50672;BME280;46021;55.882;37.654;2022-09-09T00:31:12;100278.38;;;4.89;74.50
50672;BME280;46021;55.882;37.654;2022-09-09T00:33:39;100274.09;;;4.86;74.70
50672;BME280;46021;55.882;37.654;2022-09-09T00:36:12;100285.28;;;4.87;74.71
50672;BME280;46021;55.882;37.654;2022-09-09T00:38:42;100270.66;;;4.84;73.78
50672;BME280;46021;55.882;37.654;2022-09-09T00:41:14;100291.31;;;4.91;74.76
50672;BME280;46021;55.882;37.654;2022-09-09T00:43:53;100293.03;;;4.90;73.94
50672;BME280;46021;55.882;37.654;2022-09-09T00:46:38;100293.88;;;4.84;74.48
50672;BME280;46021;55.882;37.654;2022-09-09T00:49:15;100297.34;;;4.86;74.88
50672;BME280;46021;55.882;37.654;2022-09-09T00:51:48;100303.34;;;4.85;73.72
50672;BME280;46021;55.882;37.654;2022-09-09T00:54:28;100302.47;;;4.82;73.65
50672;BME280;46021;55.882;37.654;2022-09-09T00:57:12;100307.66;;;4.77;73.57
50672;BME280;46021;55.882;37.654;2022-09-09T00:59:46;100302.47;;;4.69;73.79
50672;BME280;46021;55.882;37.654;2022-09-09T01:02:18;100300.75;;;4.64;74.82
50672;BME280;46021;55.882;37.654;2022-09-09T01:04:48;100311.06;;;4.62;73.99
50672;BME280;46021;55.882;37.654;2022-09-09T01:07:17;100308.47;;;4.56;74.22
50672;BME280;46021;55.882;37.654;2022-09-09T01:09:54;100314.47;;;4.55;75.00
50672;BME280;46021;55.882;37.654;2022-09-09T01:12:30;100312.75;;;4.51;74.72
50672;BME280;46021;55.882;37.654;2022-09-09T01:15:08;100319.63;;;4.54;74.22
50672;BME280;46021;55.882;37.654;2022-09-09T01:17:47;100312.75;;;4.48;74.15
50672;BME280;46021;55.882;37.654;2022-09-09T01:20:20;100320.47;;;4.45;74.22
50672;BME280;46021;55.882;37.654;2022-09-09T01:23:05;100309.28;;;4.43;74.64
50672;BME280;46021;55.882;37.654;2022-09-09T01:26:09;100323.06;;;4.45;75.49
50672;BME280;46021;55.882;37.654;2022-09-09T01:28:39;100324.78;;;4.43;75.08
50672;BME280;46021;55.882;37.654;2022-09-09T01:31:15;100323.94;;;4.42;74.69
50672;BME280;46021;55.882;37.654;2022-09-09T01:33:46;100324.78;;;4.43;75.88
50672;BME280;46021;55.882;37.654;2022-09-09T01:36:19;100322.19;;;4.46;74.93
50672;BME280;46021;55.882;37.654;2022-09-09T01:38:49;100329.94;;;4.46;75.49
50672;BME280;46021;55.882;37.654;2022-09-09T01:41:18;100333.41;;;4.48;74.74
50672;BME280;46021;55.882;37.654;2022-09-09T01:44:07;100338.56;;;4.49;74.93
50672;BME280;46021;55.882;37.654;2022-09-09T01:46:35;100335.13;;;4.49;74.66
50672;BME280;46021;55.882;37.654;2022-09-09T01:49:05;100331.69;;;4.50;75.36
50672;BME280;46021;55.882;37.654;2022-09-09T01:51:33;100331.69;;;4.50;74.85
50672;BME280;46021;55.882;37.654;2022-09-09T01:54:03;100339.41;;;4.52;75.24
50672;BME280;46021;55.882;37.654;2022-09-09T01:56:39;100332.53;;;4.47;75.78
50672;BME280;46021;55.882;37.654;2022-09-09T02:02:07;100350.59;;;4.49;75.10
50672;BME280;46021;55.882;37.654;2022-09-09T02:04:39;100347.19;;;4.50;75.33
50672;BME280;46021;55.882;37.654;2022-09-09T02:07:29;100348.91;;;4.48;75.82
50672;BME280;46021;55.882;37.654;2022-09-09T02:10:02;100352.31;;;4.47;75.92
50672;BME280;46021;55.882;37.654;2022-09-09T02:12:32;100356.59;;;4.43;75.26
50672;BME280;46021;55.882;37.654;2022-09-09T02:15:03;100350.56;;;4.40;74.90
50672;BME280;46021;55.882;37.654;2022-09-09T02:17:41;100353.13;;;4.32;74.34
50672;BME280;46021;55.882;37.654;2022-09-09T02:20:16;100337.56;;;4.15;75.17
50672;BME280;46021;55.882;37.654;2022-09-09T02:22:50;100351.28;;;4.09;75.31
50672;BME280;46021;55.882;37.654;2022-09-09T02:25:20;100361.56;;;4.02;75.41
50672;BME280;46021;55.882;37.654;2022-09-09T02:27:50;100356.34;;;3.89;75.76
50672;BME280;46021;55.882;37.654;2022-09-09T02:30:18;100366.59;;;3.83;76.17
50672;BME280;46021;55.882;37.654;2022-09-09T02:32:52;100367.41;;;3.73;76.19
50672;BME280;46021;55.882;37.654;2022-09-09T02:35:27;100370.75;;;3.63;75.39
50672;BME280;46021;55.882;37.654;2022-09-09T02:37:57;100365.53;;;3.52;75.67
50672;BME280;46021;55.882;37.654;2022-09-09T02:40:26;100380.97;;;3.50;76.57
50672;BME280;46021;55.882;37.654;2022-09-09T02:43:00;100380.06;;;3.44;76.23
50672;BME280;46021;55.882;37.654;2022-09-09T02:45:34;100387.78;;;3.42;76.15
50672;BME280;46021;55.882;37.654;2022-09-09T02:48:07;100385.16;;;3.38;76.57
50672;BME280;46021;55.882;37.654;2022-09-09T02:50:41;100388.59;;;3.35;76.83
50672;BME280;46021;55.882;37.654;2022-09-09T02:53:16;100396.31;;;3.35;76.71
50672;BME280;46021;55.882;37.654;2022-09-09T02:55:47;100400.59;;;3.33;76.86
50672;BME280;46021;55.882;37.654;2022-09-09T02:58:17;100398.03;;;3.33;77.15
50672;BME280;46021;55.882;37.654;2022-09-09T03:00:53;100403.13;;;3.30;76.59
50672;BME280;46021;55.882;37.654;2022-09-09T03:03:20;100390.22;;;3.27;77.34
50672;BME280;46021;55.882;37.654;2022-09-09T03:05:49;100400.56;;;3.30;77.30
50672;BME280;46021;55.882;37.654;2022-09-09T03:08:16;100396.25;;;3.30;77.13
50672;BME280;46021;55.882;37.654;2022-09-09T03:10:44;100405.78;;;3.38;78.03
50672;BME280;46021;55.882;37.654;2022-09-09T03:13:13;100405.78;;;3.38;77.75
50672;BME280;46021;55.882;37.654;2022-09-09T03:15:42;100406.66;;;3.41;77.62
50672;BME280;46021;55.882;37.654;2022-09-09T03:18:14;100409.28;;;3.43;77.85
50672;BME280;46021;55.882;37.654;2022-09-09T03:20:42;100411.88;;;3.47;77.87
50672;BME280;46021;55.882;37.654;2022-09-09T03:23:09;100415.38;;;3.53;77.85
50672;BME280;46021;55.882;37.654;2022-09-09T03:25:36;100405.91;;;3.53;77.49
50672;BME280;46021;55.882;37.654;2022-09-09T03:28:04;100409.38;;;3.55;77.21
50672;BME280;46021;55.882;37.654;2022-09-09T03:30:31;100413.75;;;3.64;77.45
50672;BME280;46021;55.882;37.654;2022-09-09T03:32:58;100413.84;;;3.75;77.68
50672;BME280;46021;55.882;37.654;2022-09-09T03:35:30;100422.50;;;3.84;78.00
50672;BME280;46021;55.882;37.654;2022-09-09T03:37:56;100427.97;;;4.32;80.39
50672;BME280;46021;55.882;37.654;2022-09-09T03:40:23;100426.56;;;5.05;81.11
50672;BME280;46021;55.882;37.654;2022-09-09T03:42:50;100421.44;;;5.93;80.79
50672;BME280;46021;55.882;37.654;2022-09-09T03:45:17;100428.19;;;6.77;79.20
50672;BME280;46021;55.882;37.654;2022-09-09T03:47:43;100425.22;;;7.43;76.69
50672;BME280;46021;55.882;37.654;2022-09-09T03:50:11;100419.56;;;7.98;73.82
50672;BME280;46021;55.882;37.654;2022-09-09T03:52:42;100422.50;;;8.51;73.67
50672;BME280;46021;55.882;37.654;2022-09-09T03:55:16;100429.72;;;8.97;71.79
50672;BME280;46021;55.882;37.654;2022-09-09T03:57:42;100429.22;;;9.34;71.16
50672;BME280;46021;55.882;37.654;2022-09-09T04:00:10;100421.56;;;9.80;70.28
50672;BME280;46021;55.882;37.654;2022-09-09T04:02:42;100421.53;;;10.32;69.36
50672;BME280;46021;55.882;37.654;2022-09-09T04:05:13;100424.50;;;11.00;67.92
50672;BME280;46021;55.882;37.654;2022-09-09T04:07:42;100435.19;;;11.65;65.98
50672;BME280;46021;55.882;37.654;2022-09-09T04:10:10;100433.88;;;12.19;64.04
50672;BME280;46021;55.882;37.654;2022-09-09T04:12:38;100422.19;;;12.64;62.81
50672;BME280;46021;55.882;37.654;2022-09-09T04:15:06;100431.56;;;13.02;60.85
50672;BME280;46021;55.882;37.654;2022-09-09T04:17:34;100419.00;;;13.42;59.96
50672;BME280;46021;55.882;37.654;2022-09-09T04:20:02;100416.72;;;13.86;58.18
50672;BME280;46021;55.882;37.654;2022-09-09T04:22:30;100422.63;;;14.18;56.42
50672;BME280;46021;55.882;37.654;2022-09-09T04:24:58;100431.91;;;14.52;55.67
50672;BME280;46021;55.882;37.654;2022-09-09T04:27:25;100426.81;;;14.96;55.46
50672;BME280;46021;55.882;37.654;2022-09-09T04:29:53;100430.41;;;15.39;54.02
50672;BME280;46021;55.882;37.654;2022-09-09T04:32:23;100426.59;;;15.90;52.53
50672;BME280;46021;55.882;37.654;2022-09-09T04:34:52;100430.00;;;16.33;51.34
50672;BME280;46021;55.882;37.654;2022-09-09T04:37:19;100422.75;;;16.38;49.82
50672;BME280;46021;55.882;37.654;2022-09-09T04:39:46;100430.97;;;16.31;48.80
50672;BME280;46021;55.882;37.654;2022-09-09T04:42:13;100438.31;;;16.24;48.42
50672;BME280;46021;55.882;37.654;2022-09-09T04:44:39;100429.72;;;16.40;48.63
50672;BME280;46021;55.882;37.654;2022-09-09T04:47:07;100436.84;;;16.37;47.12
50672;BME280;46021;55.882;37.654;2022-09-09T04:49:35;100439.06;;;16.47;47.67
50672;BME280;46021;55.882;37.654;2022-09-09T04:52:02;100434.63;;;16.68;46.55
50672;BME280;46021;55.882;37.654;2022-09-09T04:54:31;100426.97;;;16.82;46.06
50672;BME280;46021;55.882;37.654;2022-09-09T04:56:58;100430.47;;;17.02;45.92
50672;BME280;46021;55.882;37.654;2022-09-09T04:59:25;100432.91;;;17.43;44.84
50672;BME280;46021;55.882;37.654;2022-09-09T05:01:55;100440.66;;;17.82;44.23
50672;BME280;46021;55.882;37.654;2022-09-09T05:04:21;100435.09;;;18.23;43.60
50672;BME280;46021;55.882;37.654;2022-09-09T05:06:48;100436.59;;;18.45;42.64
50672;BME280;46021;55.882;37.654;2022-09-09T05:09:15;100434.13;;;18.93;42.32
50672;BME280;46021;55.882;37.654;2022-09-09T05:11:43;100439.69;;;19.82;42.09
50672;BME280;46021;55.882;37.654;2022-09-09T05:14:35;100446.31;;;20.19;40.17
50672;BME280;46021;55.882;37.654;2022-09-09T05:17:04;100443.94;;;20.74;39.41
50672;BME280;46021;55.882;37.654;2022-09-09T05:19:32;100461.09;;;20.52;38.54
50672;BME280;46021;55.882;37.654;2022-09-09T05:21:58;100444.47;;;20.93;39.03
50672;BME280;46021;55.882;37.654;2022-09-09T05:24:34;100452.78;;;21.01;37.98
50672;BME280;46021;55.882;37.654;2022-09-09T05:27:02;100449.47;;;20.98;37.05
50672;BME280;46021;55.882;37.654;2022-09-09T05:29:30;100451.09;;;21.00;37.57
50672;BME280;46021;55.882;37.654;2022-09-09T05:32:01;100455.59;;;21.27;37.72
50672;BME280;46021;55.882;37.654;2022-09-09T05:34:27;100455.38;;;21.72;37.42
50672;BME280;46021;55.882;37.654;2022-09-09T05:36:55;100462.06;;;21.23;35.67
50672;BME280;46021;55.882;37.654;2022-09-09T05:39:23;100462.44;;;19.38;36.34
50672;BME280;46021;55.882;37.654;2022-09-09T05:41:49;100470.53;;;17.46;38.35
50672;BME280;46021;55.882;37.654;2022-09-09T05:44:17;100471.78;;;15.78;40.25
50672;BME280;46021;55.882;37.654;2022-09-09T05:46:45;100475.38;;;14.34;42.13
50672;BME280;46021;55.882;37.654;2022-09-09T05:49:14;100472.09;;;13.17;43.72
50672;BME280;46021;55.882;37.654;2022-09-09T05:51:41;100474.78;;;12.20;45.05
50672;BME280;46021;55.882;37.654;2022-09-09T05:54:12;100479.41;;;11.34;46.91
50672;BME280;46021;55.882;37.654;2022-09-09T05:56:43;100479.78;;;10.75;48.17
50672;BME280;46021;55.882;37.654;2022-09-09T05:59:10;100486.28;;;10.04;49.59
50672;BME280;46021;55.882;37.654;2022-09-09T06:01:38;100474.66;;;9.71;49.84
50672;BME280;46021;55.882;37.654;2022-09-09T06:04:09;100479.50;;;9.36;51.02
50672;BME280;46021;55.882;37.654;2022-09-09T06:06:37;100479.81;;;9.15;50.91
50672;BME280;46021;55.882;37.654;2022-09-09T06:09:17;100478.28;;;8.95;52.12
50672;BME280;46021;55.882;37.654;2022-09-09T06:11:44;100495.75;;;8.84;52.28
50672;BME280;46021;55.882;37.654;2022-09-09T06:14:13;100496.09;;;8.53;52.76
50672;BME280;46021;55.882;37.654;2022-09-09T06:16:40;100498.78;;;8.41;53.54
50672;BME280;46021;55.882;37.654;2022-09-09T06:19:29;100507.56;;;8.31;53.42
50672;BME280;46021;55.882;37.654;2022-09-09T06:21:58;100506.78;;;8.19;53.82
50672;BME280;46021;55.882;37.654;2022-09-09T06:24:27;100506.03;;;8.05;55.01
50672;BME280;46021;55.882;37.654;2022-09-09T06:26:55;100506.16;;;7.91;55.29
50672;BME280;46021;55.882;37.654;2022-09-09T06:29:27;100514.06;;;7.77;56.46
50672;BME280;46021;55.882;37.654;2022-09-09T06:31:53;100509.78;;;7.69;56.07
50672;BME280;46021;55.882;37.654;2022-09-09T06:34:22;100511.53;;;7.65;57.11
50672;BME280;46021;55.882;37.654;2022-09-09T06:36:56;100511.63;;;7.54;57.88
50672;BME280;46021;55.882;37.654;2022-09-09T06:39:25;100508.97;;;7.57;57.20
50672;BME280;46021;55.882;37.654;2022-09-09T06:41:52;100512.38;;;7.67;57.37
50672;BME280;46021;55.882;37.654;2022-09-09T06:44:39;100514.09;;;7.71;57.48
50672;BME280;46021;55.882;37.654;2022-09-09T06:47:10;100512.34;;;7.73;57.75
50672;BME280;46021;55.882;37.654;2022-09-09T06:49:37;100517.59;;;7.64;58.29
50672;BME280;46021;55.882;37.654;2022-09-09T06:52:08;100516.72;;;7.68;58.15
50672;BME280;46021;55.882;37.654;2022-09-09T06:54:35;100519.34;;;7.62;58.56
50672;BME280;46021;55.882;37.654;2022-09-09T06:57:03;100513.31;;;7.60;59.14
50672;BME280;46021;55.882;37.654;2022-09-09T06:59:33;100518.50;;;7.60;58.98
50672;BME280;46021;55.882;37.654;2022-09-09T07:02:00;100515.84;;;7.66;58.57
50672;BME280;46021;55.882;37.654;2022-09-09T07:04:28;100532.28;;;7.68;59.03
50672;BME280;46021;55.882;37.654;2022-09-09T07:06:54;100527.88;;;7.76;58.95
50672;BME280;46021;55.882;37.654;2022-09-09T07:09:23;100531.25;;;7.91;58.76
50672;BME280;46021;55.882;37.654;2022-09-09T07:11:52;100527.72;;;7.99;58.53
50672;BME280;46021;55.882;37.654;2022-09-09T07:14:20;100545.81;;;8.10;58.59
50672;BME280;46021;55.882;37.654;2022-09-09T07:16:53;100536.25;;;8.18;58.43
50672;BME280;46021;55.882;37.654;2022-09-09T07:19:20;100545.66;;;8.32;58.01
50672;BME280;46021;55.882;37.654;2022-09-09T07:21:50;100531.66;;;8.48;57.82
50672;BME280;46021;55.882;37.654;2022-09-09T07:24:19;100543.66;;;8.62;57.81
50672;BME280;46021;55.882;37.654;2022-09-09T07:26:46;100549.50;;;8.84;57.49
50672;BME280;46021;55.882;37.654;2022-09-09T07:29:13;100536.34;;;8.99;56.94
50672;BME280;46021;55.882;37.654;2022-09-09T07:31:42;100550.78;;;9.25;56.78
50672;BME280;46021;55.882;37.654;2022-09-09T07:34:17;100547.16;;;9.36;56.33
50672;BME280;46021;55.882;37.654;2022-09-09T07:36:44;100555.06;;;9.27;55.31
50672;BME280;46021;55.882;37.654;2022-09-09T07:39:13;100553.31;;;9.29;54.55
50672;BME280;46021;55.882;37.654;2022-09-09T07:41:45;100567.13;;;9.33;54.41
50672;BME280;46021;55.882;37.654;2022-09-09T07:44:15;100557.25;;;9.58;54.82
50672;BME280;46021;55.882;37.654;2022-09-09T07:46:44;100557.47;;;9.43;53.96
50672;BME280;46021;55.882;37.654;2022-09-09T07:49:15;100560.75;;;9.57;54.71
50672;BME280;46021;55.882;37.654;2022-09-09T07:51:44;100562.66;;;9.46;53.68
50672;BME280;46021;55.882;37.654;2022-09-09T07:54:14;100570.13;;;9.70;53.49
50672;BME280;46021;55.882;37.654;2022-09-09T07:56:43;100571.66;;;9.85;53.13
50672;BME280;46021;55.882;37.654;2022-09-09T07:59:11;100570.63;;;9.94;52.95
50672;BME280;46021;55.882;37.654;2022-09-09T08:01:44;100560.75;;;10.16;52.57
50672;BME280;46021;55.882;37.654;2022-09-09T08:04:14;100553.78;;;10.17;51.69
50672;BME280;46021;55.882;37.654;2022-09-09T08:06:44;100562.63;;;10.09;51.51
50672;BME280;46021;55.882;37.654;2022-09-09T08:09:13;100559.75;;;10.25;51.77
50672;BME280;46021;55.882;37.654;2022-09-09T08:11:42;100564.03;;;10.29;51.60
50672;BME280;46021;55.882;37.654;2022-09-09T08:14:10;100558.81;;;10.30;51.53
50672;BME280;46021;55.882;37.654;2022-09-09T08:16:40;100570.81;;;10.39;51.78
50672;BME280;46021;55.882;37.654;2022-09-09T08:19:08;100563.53;;;10.58;51.03
50672;BME280;46021;55.882;37.654;2022-09-09T08:21:35;100565.81;;;10.78;51.64
50672;BME280;46021;55.882;37.654;2022-09-09T08:24:04;100568.06;;;10.48;50.55
50672;BME280;46021;55.882;37.654;2022-09-09T08:26:33;100567.81;;;10.09;50.95
50672;BME280;46021;55.882;37.654;2022-09-09T08:29:02;100574.13;;;10.49;50.89
50672;BME280;46021;55.882;37.654;2022-09-09T08:31:31;100566.81;;;10.69;50.04
50672;BME280;46021;55.882;37.654;2022-09-09T08:34:00;100568.38;;;10.80;49.92
50672;BME280;46021;55.882;37.654;2022-09-09T08:36:32;100563.84;;;10.91;49.43
50672;BME280;46021;55.882;37.654;2022-09-09T08:39:00;100559.66;;;10.81;48.81
50672;BME280;46021;55.882;37.654;2022-09-09T08:41:39;100566.75;;;11.19;48.64
50672;BME280;46021;55.882;37.654;2022-09-09T08:44:14;100564.66;;;11.37;48.10
50672;BME280;46021;55.882;37.654;2022-09-09T08:46:50;100574.03;;;11.03;48.82
50672;BME280;46021;55.882;37.654;2022-09-09T08:49:44;100571.19;;;11.16;48.61
50672;BME280;46021;55.882;37.654;2022-09-09T08:52:29;100583.13;;;11.27;48.73
50672;BME280;46021;55.882;37.654;2022-09-09T08:54:59;100582.22;;;11.28;49.88
50672;BME280;46021;55.882;37.654;2022-09-09T08:57:30;100583.13;;;12.08;51.28
50672;BME280;46021;55.882;37.654;2022-09-09T08:59:58;100570.94;;;14.25;49.86
50672;BME280;46021;55.882;37.654;2022-09-09T09:02:31;100568.09;;;16.66;43.80
50672;BME280;46021;55.882;37.654;2022-09-09T09:05:16;100575.47;;;17.95;38.85
50672;BME280;46021;55.882;37.654;2022-09-09T09:07:58;100567.47;;;17.78;37.07
50672;BME280;46021;55.882;37.654;2022-09-09T09:10:41;100573.56;;;16.18;37.83
50672;BME280;46021;55.882;37.654;2022-09-09T09:13:18;100571.63;;;14.58;39.65
50672;BME280;46021;55.882;37.654;2022-09-09T09:15:50;100570.69;;;14.06;40.83
50672;BME280;46021;55.882;37.654;2022-09-09T09:18:18;100571.28;;;13.59;41.80
50672;BME280;46021;55.882;37.654;2022-09-09T09:20:55;100565.94;;;13.62;42.64
50672;BME280;46021;55.882;37.654;2022-09-09T09:23:35;100570.41;;;13.87;41.79
50672;BME280;46021;55.882;37.654;2022-09-09T09:26:07;100576.78;;;13.80;42.01
50672;BME280;46021;55.882;37.654;2022-09-09T09:28:35;100573.31;;;13.50;42.85
50672;BME280;46021;55.882;37.654;2022-09-09T09:31:10;100582.78;;;13.22;43.29
50672;BME280;46021;55.882;37.654;2022-09-09T09:33:47;100582.47;;;13.02;44.00
50672;BME280;46021;55.882;37.654;2022-09-09T09:36:16;100581.28;;;12.82;44.03
50672;BME280;46021;55.882;37.654;2022-09-09T09:38:56;100583.13;;;12.77;44.73
50672;BME280;46021;55.882;37.654;2022-09-09T09:41:32;100578.88;;;13.39;45.62
50672;BME280;46021;55.882;37.654;2022-09-09T09:43:59;100565.91;;;14.46;44.83
50672;BME280;46021;55.882;37.654;2022-09-09T09:46:28;100575.25;;;15.05;42.68
50672;BME280;46021;55.882;37.654;2022-09-09T09:49:05;100573.03;;;15.17;42.56
50672;BME280;46021;55.882;37.654;2022-09-09T09:51:33;100563.34;;;14.96;41.74
50672;BME280;46021;55.882;37.654;2022-09-09T09:54:22;100563.56;;;14.90;41.23
50672;BME280;46021;55.882;37.654;2022-09-09T09:56:55;100566.13;;;15.38;40.05
50672;BME280;46021;55.882;37.654;2022-09-09T09:59:32;100575.88;;;15.82;39.37
50672;BME280;46021;55.882;37.654;2022-09-09T10:02:16;100566.72;;;17.38;36.84
50672;BME280;46021;55.882;37.654;2022-09-09T10:04:44;100569.50;;;19.95;38.75
50672;BME280;46021;55.882;37.654;2022-09-09T10:07:13;100554.88;;;21.79;35.07
50672;BME280;46021;55.882;37.654;2022-09-09T10:09:44;100565.84;;;21.46;32.14
50672;BME280;46021;55.882;37.654;2022-09-09T10:12:21;100571.31;;;19.78;32.18
50672;BME280;46021;55.882;37.654;2022-09-09T10:14:58;100572.41;;;17.66;34.63
50672;BME280;46021;55.882;37.654;2022-09-09T10:17:34;100587.50;;;16.43;36.04
50672;BME280;46021;55.882;37.654;2022-09-09T10:20:19;100586.06;;;15.44;37.39
50672;BME280;46021;55.882;37.654;2022-09-09T10:22:51;100589.16;;;14.58;38.99
50672;BME280;46021;55.882;37.654;2022-09-09T10:25:33;100584.31;;;14.17;39.78
50672;BME280;46021;55.882;37.654;2022-09-09T10:28:18;100583.28;;;13.95;40.11
50672;BME280;46021;55.882;37.654;2022-09-09T10:30:53;100576.78;;;13.80;40.51
50672;BME280;46021;55.882;37.654;2022-09-09T10:33:31;100578.75;;;13.72;41.60
50672;BME280;46021;55.882;37.654;2022-09-09T10:36:07;100583.31;;;14.48;41.91
50672;BME280;46021;55.882;37.654;2022-09-09T10:38:40;100578.84;;;16.18;41.66
50672;BME280;46021;55.882;37.654;2022-09-09T10:41:20;100566.59;;;18.33;36.81
50672;BME280;46021;55.882;37.654;2022-09-09T10:44:06;100577.28;;;20.58;34.88
50672;BME280;46021;55.882;37.654;2022-09-09T10:46:48;100574.09;;;21.27;31.69
50672;BME280;46021;55.882;37.654;2022-09-09T10:49:25;100574.97;;;20.38;30.44
50672;BME280;46021;55.882;37.654;2022-09-09T10:52:03;100579.78;;;18.67;31.45
50672;BME280;46021;55.882;37.654;2022-09-09T10:54:43;100580.16;;;17.31;32.59
50672;BME280;46021;55.882;37.654;2022-09-09T10:57:24;100590.63;;;16.30;35.14
50672;BME280;46021;55.882;37.654;2022-09-09T10:59:58;100587.56;;;15.51;35.36
50672;BME280;46021;55.882;37.654;2022-09-09T11:02:33;100573.75;;;14.99;36.90
50672;BME280;46021;55.882;37.654;2022-09-09T11:05:03;100577.81;;;14.57;37.08
50672;BME280;46021;55.882;37.654;2022-09-09T11:07:35;100587.44;;;14.29;38.14
50672;BME280;46021;55.882;37.654;2022-09-09T11:10:11;100586.44;;;14.33;38.49
50672;BME280;46021;55.882;37.654;2022-09-09T11:12:45;100583.88;;;15.33;39.40
50672;BME280;46021;55.882;37.654;2022-09-09T11:15:19;100580.78;;;17.37;37.90
50672;BME280;46021;55.882;37.654;2022-09-09T11:17:50;100570.75;;;19.56;35.68
50672;BME280;46021;55.882;37.654;2022-09-09T11:20:19;100568.00;;;21.39;32.60
50672;BME280;46021;55.882;37.654;2022-09-09T11:22:49;100571.47;;;22.63;30.56
50672;BME280;46021;55.882;37.654;2022-09-09T11:25:19;100567.03;;;23.02;29.26
50672;BME280;46021;55.882;37.654;2022-09-09T11:28:06;100569.06;;;21.22;29.58
50672;BME280;46021;55.882;37.654;2022-09-09T11:30:39;100576.19;;;19.53;30.09
50672;BME280;46021;55.882;37.654;2022-09-09T11:39:44;100587.88;;;15.89;34.42
50672;BME280;46021;55.882;37.654;2022-09-09T11:42:18;100581.53;;;16.17;36.36
50672;BME280;46021;55.882;37.654;2022-09-09T11:44:50;100582.75;;;17.12;35.52
50672;BME280;46021;55.882;37.654;2022-09-09T11:47:23;100570.41;;;17.71;32.70
50672;BME280;46021;55.882;37.654;2022-09-09T11:49:52;100564.72;;;17.62;32.95
50672;BME280;46021;55.882;37.654;2022-09-09T11:52:24;100585.44;;;16.92;32.27
50672;BME280;46021;55.882;37.654;2022-09-09T11:55:09;100581.78;;;16.11;32.92
50672;BME280;46021;55.882;37.654;2022-09-09T11:57:38;100581.44;;;15.74;35.43
50672;BME280;46021;55.882;37.654;2022-09-09T12:00:27;100586.69;;;16.41;35.83
50672;BME280;46021;55.882;37.654;2022-09-09T12:02:53;100578.41;;;17.89;35.62
50672;BME280;46021;55.882;37.654;2022-09-09T12:05:20;100580.56;;;19.04;34.43
50672;BME280;46021;55.882;37.654;2022-09-09T12:07:49;100572.56;;;20.03;34.07
50672;BME280;46021;55.882;37.654;2022-09-09T12:10:22;100570.41;;;19.62;29.92
50672;BME280;46021;55.882;37.654;2022-09-09T12:12:50;100565.97;;;20.10;31.32
50672;BME280;46021;55.882;37.654;2022-09-09T12:15:21;100573.97;;;20.85;31.54
50672;BME280;46021;55.882;37.654;2022-09-09T12:17:49;100576.88;;;20.80;31.25
50672;BME280;46021;55.882;37.654;2022-09-09T12:20:18;100568.72;;;20.09;30.67
50672;BME280;46021;55.882;37.654;2022-09-09T12:23:16;100572.97;;;18.98;30.74
50672;BME280;46021;55.882;37.654;2022-09-09T12:26:02;100565.97;;;17.72;31.72
50672;BME280;46021;55.882;37.654;2022-09-09T12:28:44;100566.59;;;16.81;33.31
50672;BME280;46021;55.882;37.654;2022-09-09T12:31:19;100571.47;;;16.05;33.83
50672;BME280;46021;55.882;37.654;2022-09-09T12:33:49;100573.91;;;15.42;34.59
50672;BME280;46021;55.882;37.654;2022-09-09T12:36:20;100578.38;;;14.91;35.57
50672;BME280;46021;55.882;37.654;2022-09-09T12:38:49;100574.56;;;14.48;36.16
50672;BME280;46021;55.882;37.654;2022-09-09T12:41:20;100574.50;;;14.24;36.53
50672;BME280;46021;55.882;37.654;2022-09-09T12:43:47;100571.88;;;13.97;36.92
50672;BME280;46021;55.882;37.654;2022-09-09T12:46:23;100575.91;;;13.79;37.67
50672;BME280;46021;55.882;37.654;2022-09-09T12:48:53;100573.47;;;13.73;37.88
50672;BME280;46021;55.882;37.654;2022-09-09T12:51:24;100563.59;;;13.53;38.14
50672;BME280;46021;55.882;37.654;2022-09-09T12:53:52;100568.59;;;13.89;39.68
50672;BME280;46021;55.882;37.654;2022-09-09T12:56:20;100573.41;;;14.58;40.45
50672;BME280;46021;55.882;37.654;2022-09-09T12:58:50;100557.41;;;15.38;38.80
50672;BME280;46021;55.882;37.654;2022-09-09T13:01:22;100557.06;;;16.15;37.88
50672;BME280;46021;55.882;37.654;2022-09-09T13:03:50;100561.44;;;16.77;37.26
50672;BME280;46021;55.882;37.654;2022-09-09T13:06:31;100564.19;;;16.33;35.36
50672;BME280;46021;55.882;37.654;2022-09-09T13:09:01;100553.53;;;15.94;35.55
50672;BME280;46021;55.882;37.654;2022-09-09T13:11:31;100559.28;;;15.58;35.99
50672;BME280;46021;55.882;37.654;2022-09-09T13:14:04;100558.78;;;15.25;36.32
50672;BME280;46021;55.882;37.654;2022-09-09T13:16:32;100561.41;;;15.48;36.54
50672;BME280;46021;55.882;37.654;2022-09-09T13:19:01;100553.44;;;15.28;36.81